sensor_id;sensor_type;location;lat;lon;timestamp;P1;durP1;ratioP1;P2;durP2;ratioP2
39540;SDS011;25219;52.244;21.006;2023-11-18T00:01:19;18.58;;;10.30;;
39540;SDS011;25219;52.244;21.006;2023-11-18T00:03:45;20.50;;;10.68;;
39540;SDS011;25219;52.244;21.006;2023-11-18T00:06:10;15.75;;;10.07;;
39540;SDS011;25219;52.244;21.006;2023-11-18T00:08:35;20.43;;;9.53;;
39540;SDS011;25219;52.244;21.006;2023-11-18T00:11:01;17.45;;;10.27;;
39540;SDS011;25219;52.244;21.006;2023-11-18T00:13:26;18.35;;;9.50;;
39540;SDS011;25219;52.244;21.006;2023-11-18T00:15:51;17.13;;;9.07;;
39540;SDS011;25219;52.244;21.006;2023-11-18T00:18:16;18.67;;;10.07;;
39540;SDS011;25219;52.244;21.006;2023-11-18T00:20:42;16.05;;;9.00;;
39540;SDS011;25219;52.244;21.006;2023-11-18T00:23:08;17.85;;;9.20;;
39540;SDS011;25219;52.244;21.006;2023-11-18T00:25:33;15.90;;;9.40;;
39540;SDS011;25219;52.244;21.006;2023-11-18T00:28:00;18.40;;;9.32;;
39540;SDS011;25219;52.244;21.006;2023-11-18T00:30:25;17.83;;;9.63;;
39540;SDS011;25219;52.244;21.006;2023-11-18T00:32:50;15.83;;;9.20;;
39540;SDS011;25219;52.244;21.006;2023-11-18T00:35:15;17.00;;;9.13;;
39540;SDS011;25219;52.244;21.006;2023-11-18T00:37:41;17.15;;;9.45;;
39540;SDS011;25219;52.244;21.006;2023-11-18T00:40:09;15.37;;;8.47;;
39540;SDS011;25219;52.244;21.006;2023-11-18T00:42:34;16.30;;;8.63;;
39540;SDS011;25219;52.244;21.006;2023-11-18T00:44:59;14.88;;;9.18;;
39540;SDS011;25219;52.244;21.006;2023-11-18T00:47:25;16.75;;;8.35;;
39540;SDS011;25219;52.244;21.006;2023-11-18T00:49:50;16.63;;;9.32;;
39540;SDS011;25219;52.244;21.006;2023-11-18T00:52:17;17.67;;;10.00;;
39540;SDS011;25219;52.244;21.006;2023-11-18T00:54:43;16.25;;;9.02;;
39540;SDS011;25219;52.244;21.006;2023-11-18T00:57:08;13.53;;;8.27;;
39540;SDS011;25219;52.244;21.006;2023-11-18T00:59:34;15.30;;;8.32;;
39540;SDS011;25219;52.244;21.006;2023-11-18T01:01:59;15.60;;;8.25;;
39540;SDS011;25219;52.244;21.006;2023-11-18T01:04:24;15.23;;;8.35;;
39540;SDS011;25219;52.244;21.006;2023-11-18T01:06:50;15.15;;;8.65;;
39540;SDS011;25219;52.244;21.006;2023-11-18T01:09:16;14.35;;;8.10;;
39540;SDS011;25219;52.244;21.006;2023-11-18T01:11:42;16.95;;;8.32;;
39540;SDS011;25219;52.244;21.006;2023-11-18T01:14:07;16.07;;;8.23;;
39540;SDS011;25219;52.244;21.006;2023-11-18T01:16:32;14.88;;;7.97;;
39540;SDS011;25219;52.244;21.006;2023-11-18T01:18:58;10.65;;;7.25;;
39540;SDS011;25219;52.244;21.006;2023-11-18T01:21:24;12.60;;;7.65;;
39540;SDS011;25219;52.244;21.006;2023-11-18T01:23:49;11.05;;;7.35;;
39540;SDS011;25219;52.244;21.006;2023-11-18T01:26:15;12.43;;;7.03;;
39540;SDS011;25219;52.244;21.006;2023-11-18T01:28:40;12.38;;;7.22;;
39540;SDS011;25219;52.244;21.006;2023-11-18T01:31:10;9.93;;;6.47;;
39540;SDS011;25219;52.244;21.006;2023-11-18T01:33:39;12.73;;;7.00;;
39540;SDS011;25219;52.244;21.006;2023-11-18T01:36:10;12.63;;;7.07;;
39540;SDS011;25219;52.244;21.006;2023-11-18T01:38:38;9.15;;;6.43;;
39540;SDS011;25219;52.244;21.006;2023-11-18T01:41:06;10.63;;;6.47;;
39540;SDS011;25219;52.244;21.006;2023-11-18T01:43:32;10.50;;;6.63;;
39540;SDS011;25219;52.244;21.006;2023-11-18T01:45:58;12.57;;;6.97;;
39540;SDS011;25219;52.244;21.006;2023-11-18T01:48:26;10.55;;;6.45;;
39540;SDS011;25219;52.244;21.006;2023-11-18T01:50:52;11.52;;;6.82;;
39540;SDS011;25219;52.244;21.006;2023-11-18T01:53:18;9.98;;;6.72;;
39540;SDS011;25219;52.244;21.006;2023-11-18T01:55:43;10.82;;;6.93;;
39540;SDS011;25219;52.244;21.006;2023-11-18T01:58:08;11.97;;;7.20;;
39540;SDS011;25219;52.244;21.006;2023-11-18T02:00:39;13.68;;;7.22;;
39540;SDS011;25219;52.244;21.006;2023-11-18T02:03:07;13.65;;;6.85;;
39540;SDS011;25219;52.244;21.006;2023-11-18T02:05:34;10.60;;;6.47;;
39540;SDS011;25219;52.244;21.006;2023-11-18T02:08:00;12.98;;;7.13;;
39540;SDS011;25219;52.244;21.006;2023-11-18T02:10:26;13.30;;;6.97;;
39540;SDS011;25219;52.244;21.006;2023-11-18T02:12:58;8.75;;;5.97;;
39540;SDS011;25219;52.244;21.006;2023-11-18T02:15:31;11.85;;;6.78;;
39540;SDS011;25219;52.244;21.006;2023-11-18T02:17:59;10.23;;;6.20;;
39540;SDS011;25219;52.244;21.006;2023-11-18T02:20:26;10.70;;;6.55;;
39540;SDS011;25219;52.244;21.006;2023-11-18T02:22:52;10.38;;;6.38;;
39540;SDS011;25219;52.244;21.006;2023-11-18T02:25:17;13.48;;;6.40;;
39540;SDS011;25219;52.244;21.006;2023-11-18T02:27:44;11.02;;;5.82;;
39540;SDS011;25219;52.244;21.006;2023-11-18T02:30:10;10.68;;;5.72;;
39540;SDS011;25219;52.244;21.006;2023-11-18T02:33:01;9.18;;;5.78;;
39540;SDS011;25219;52.244;21.006;2023-11-18T02:35:31;9.00;;;5.85;;
39540;SDS011;25219;52.244;21.006;2023-11-18T02:38:00;10.60;;;5.60;;
39540;SDS011;25219;52.244;21.006;2023-11-18T02:40:32;9.18;;;5.30;;
39540;SDS011;25219;52.244;21.006;2023-11-18T02:42:58;11.45;;;5.07;;
39540;SDS011;25219;52.244;21.006;2023-11-18T02:45:24;9.02;;;5.18;;
39540;SDS011;25219;52.244;21.006;2023-11-18T02:47:50;7.93;;;5.15;;
39540;SDS011;25219;52.244;21.006;2023-11-18T02:50:15;8.85;;;5.53;;
39540;SDS011;25219;52.244;21.006;2023-11-18T02:52:41;8.45;;;5.15;;
39540;SDS011;25219;52.244;21.006;2023-11-18T02:55:06;8.30;;;5.13;;
39540;SDS011;25219;52.244;21.006;2023-11-18T02:57:32;10.00;;;5.13;;
39540;SDS011;25219;52.244;21.006;2023-11-18T02:59:58;6.73;;;4.73;;
39540;SDS011;25219;52.244;21.006;2023-11-18T03:02:25;8.43;;;4.95;;
39540;SDS011;25219;52.244;21.006;2023-11-18T03:04:52;6.57;;;4.45;;
39540;SDS011;25219;52.244;21.006;2023-11-18T03:07:17;7.32;;;4.75;;
39540;SDS011;25219;52.244;21.006;2023-11-18T03:09:43;8.35;;;4.53;;
39540;SDS011;25219;52.244;21.006;2023-11-18T03:12:08;7.60;;;5.00;;
39540;SDS011;25219;52.244;21.006;2023-11-18T03:14:33;7.00;;;4.72;;
39540;SDS011;25219;52.244;21.006;2023-11-18T03:16:59;5.57;;;4.30;;
39540;SDS011;25219;52.244;21.006;2023-11-18T03:19:25;6.70;;;4.40;;
39540;SDS011;25219;52.244;21.006;2023-11-18T03:21:50;7.50;;;4.22;;
39540;SDS011;25219;52.244;21.006;2023-11-18T03:24:18;6.72;;;4.00;;
39540;SDS011;25219;52.244;21.006;2023-11-18T03:26:43;7.28;;;4.15;;
39540;SDS011;25219;52.244;21.006;2023-11-18T03:29:08;7.07;;;4.13;;
39540;SDS011;25219;52.244;21.006;2023-11-18T03:31:35;7.60;;;4.32;;
39540;SDS011;25219;52.244;21.006;2023-11-18T03:34:01;6.55;;;4.30;;
39540;SDS011;25219;52.244;21.006;2023-11-18T03:36:26;8.47;;;3.97;;
39540;SDS011;25219;52.244;21.006;2023-11-18T03:38:51;7.32;;;4.13;;
39540;SDS011;25219;52.244;21.006;2023-11-18T03:41:17;7.22;;;3.90;;
39540;SDS011;25219;52.244;21.006;2023-11-18T03:43:42;5.22;;;3.83;;
39540;SDS011;25219;52.244;21.006;2023-11-18T03:46:07;4.93;;;3.33;;
39540;SDS011;25219;52.244;21.006;2023-11-18T03:48:32;8.07;;;4.13;;
39540;SDS011;25219;52.244;21.006;2023-11-18T03:50:58;4.82;;;3.63;;
39540;SDS011;25219;52.244;21.006;2023-11-18T03:53:23;5.82;;;3.90;;
39540;SDS011;25219;52.244;21.006;2023-11-18T03:55:48;6.60;;;4.13;;
39540;SDS011;25219;52.244;21.006;2023-11-18T03:58:13;6.07;;;3.70;;
39540;SDS011;25219;52.244;21.006;2023-11-18T04:00:39;7.30;;;4.03;;
39540;SDS011;25219;52.244;21.006;2023-11-18T04:03:04;4.95;;;3.53;;
39540;SDS011;25219;52.244;21.006;2023-11-18T04:05:31;6.43;;;3.92;;
39540;SDS011;25219;52.244;21.006;2023-11-18T04:07:56;5.82;;;3.97;;
39540;SDS011;25219;52.244;21.006;2023-11-18T04:10:22;5.50;;;3.90;;
39540;SDS011;25219;52.244;21.006;2023-11-18T04:12:47;4.15;;;3.17;;
39540;SDS011;25219;52.244;21.006;2023-11-18T04:15:13;5.88;;;3.85;;
39540;SDS011;25219;52.244;21.006;2023-11-18T04:17:38;6.53;;;4.10;;
39540;SDS011;25219;52.244;21.006;2023-11-18T04:20:04;6.18;;;3.80;;
39540;SDS011;25219;52.244;21.006;2023-11-18T04:22:33;7.68;;;3.85;;
39540;SDS011;25219;52.244;21.006;2023-11-18T04:24:59;7.18;;;3.78;;
39540;SDS011;25219;52.244;21.006;2023-11-18T04:27:24;4.80;;;3.85;;
39540;SDS011;25219;52.244;21.006;2023-11-18T04:29:49;5.17;;;3.43;;
39540;SDS011;25219;52.244;21.006;2023-11-18T04:32:14;6.72;;;4.22;;
39540;SDS011;25219;52.244;21.006;2023-11-18T04:34:41;7.68;;;4.43;;
39540;SDS011;25219;52.244;21.006;2023-11-18T04:37:07;6.38;;;4.07;;
39540;SDS011;25219;52.244;21.006;2023-11-18T04:39:32;7.57;;;4.50;;
39540;SDS011;25219;52.244;21.006;2023-11-18T04:41:58;7.65;;;4.35;;
39540;SDS011;25219;52.244;21.006;2023-11-18T04:44:23;6.03;;;3.70;;
39540;SDS011;25219;52.244;21.006;2023-11-18T04:46:48;6.40;;;3.97;;
39540;SDS011;25219;52.244;21.006;2023-11-18T04:49:14;5.70;;;3.53;;
39540;SDS011;25219;52.244;21.006;2023-11-18T04:51:39;6.53;;;3.60;;
39540;SDS011;25219;52.244;21.006;2023-11-18T04:54:05;5.47;;;3.60;;
39540;SDS011;25219;52.244;21.006;2023-11-18T04:56:32;6.50;;;4.38;;
39540;SDS011;25219;52.244;21.006;2023-11-18T04:58:58;5.32;;;3.67;;
39540;SDS011;25219;52.244;21.006;2023-11-18T05:01:23;5.32;;;4.05;;
39540;SDS011;25219;52.244;21.006;2023-11-18T05:03:48;5.20;;;3.67;;
39540;SDS011;25219;52.244;21.006;2023-11-18T05:06:13;3.88;;;3.35;;
39540;SDS011;25219;52.244;21.006;2023-11-18T05:08:39;5.57;;;4.25;;
39540;SDS011;25219;52.244;21.006;2023-11-18T05:11:04;5.87;;;4.23;;
39540;SDS011;25219;52.244;21.006;2023-11-18T05:13:29;6.65;;;4.00;;
39540;SDS011;25219;52.244;21.006;2023-11-18T05:15:55;5.50;;;3.80;;
39540;SDS011;25219;52.244;21.006;2023-11-18T05:18:20;4.20;;;3.50;;
39540;SDS011;25219;52.244;21.006;2023-11-18T05:20:46;7.93;;;4.72;;
39540;SDS011;25219;52.244;21.006;2023-11-18T05:23:12;4.95;;;3.55;;
39540;SDS011;25219;52.244;21.006;2023-11-18T05:25:39;5.75;;;3.83;;
39540;SDS011;25219;52.244;21.006;2023-11-18T05:28:04;6.25;;;3.83;;
39540;SDS011;25219;52.244;21.006;2023-11-18T05:30:33;5.03;;;4.03;;
39540;SDS011;25219;52.244;21.006;2023-11-18T05:32:58;8.77;;;4.15;;
39540;SDS011;25219;52.244;21.006;2023-11-18T05:35:24;6.28;;;3.95;;
39540;SDS011;25219;52.244;21.006;2023-11-18T05:37:53;5.10;;;3.60;;
39540;SDS011;25219;52.244;21.006;2023-11-18T05:40:19;5.90;;;3.55;;
39540;SDS011;25219;52.244;21.006;2023-11-18T05:42:45;5.38;;;3.80;;
39540;SDS011;25219;52.244;21.006;2023-11-18T05:45:13;6.00;;;3.53;;
39540;SDS011;25219;52.244;21.006;2023-11-18T05:47:52;4.93;;;3.60;;
39540;SDS011;25219;52.244;21.006;2023-11-18T05:50:17;5.82;;;3.40;;
39540;SDS011;25219;52.244;21.006;2023-11-18T05:52:43;5.32;;;3.50;;
39540;SDS011;25219;52.244;21.006;2023-11-18T05:55:08;5.45;;;4.10;;
39540;SDS011;25219;52.244;21.006;2023-11-18T05:57:33;4.20;;;3.35;;
39540;SDS011;25219;52.244;21.006;2023-11-18T06:00:00;5.78;;;3.88;;
39540;SDS011;25219;52.244;21.006;2023-11-18T06:02:26;5.28;;;3.70;;
39540;SDS011;25219;52.244;21.006;2023-11-18T06:04:51;5.30;;;3.78;;
39540;SDS011;25219;52.244;21.006;2023-11-18T06:07:17;6.05;;;3.50;;
39540;SDS011;25219;52.244;21.006;2023-11-18T06:09:44;9.35;;;4.13;;
39540;SDS011;25219;52.244;21.006;2023-11-18T06:12:10;6.70;;;3.83;;
39540;SDS011;25219;52.244;21.006;2023-11-18T06:14:38;7.22;;;4.43;;
39540;SDS011;25219;52.244;21.006;2023-11-18T06:17:04;6.40;;;4.35;;
39540;SDS011;25219;52.244;21.006;2023-11-18T06:19:29;8.32;;;4.13;;
39540;SDS011;25219;52.244;21.006;2023-11-18T06:21:54;6.57;;;4.47;;
39540;SDS011;25219;52.244;21.006;2023-11-18T06:24:20;6.38;;;4.53;;
39540;SDS011;25219;52.244;21.006;2023-11-18T06:26:46;8.35;;;4.95;;
39540;SDS011;25219;52.244;21.006;2023-11-18T06:29:11;9.30;;;4.28;;
39540;SDS011;25219;52.244;21.006;2023-11-18T06:31:37;6.57;;;4.13;;
39540;SDS011;25219;52.244;21.006;2023-11-18T06:34:02;6.50;;;4.13;;
39540;SDS011;25219;52.244;21.006;2023-11-18T06:36:28;6.22;;;4.28;;
39540;SDS011;25219;52.244;21.006;2023-11-18T06:38:56;6.72;;;4.40;;
39540;SDS011;25219;52.244;21.006;2023-11-18T06:41:22;10.27;;;5.55;;
39540;SDS011;25219;52.244;21.006;2023-11-18T06:43:48;7.38;;;4.60;;
39540;SDS011;25219;52.244;21.006;2023-11-18T06:46:19;7.07;;;4.38;;
39540;SDS011;25219;52.244;21.006;2023-11-18T06:48:48;6.25;;;4.20;;
39540;SDS011;25219;52.244;21.006;2023-11-18T06:51:14;6.18;;;4.38;;
39540;SDS011;25219;52.244;21.006;2023-11-18T06:53:40;7.00;;;4.45;;
39540;SDS011;25219;52.244;21.006;2023-11-18T06:56:06;7.20;;;4.22;;
39540;SDS011;25219;52.244;21.006;2023-11-18T06:58:31;8.23;;;4.53;;
39540;SDS011;25219;52.244;21.006;2023-11-18T07:00:56;7.88;;;4.68;;
39540;SDS011;25219;52.244;21.006;2023-11-18T07:03:22;7.05;;;4.30;;
39540;SDS011;25219;52.244;21.006;2023-11-18T07:05:48;6.37;;;4.13;;
39540;SDS011;25219;52.244;21.006;2023-11-18T07:08:13;7.07;;;4.13;;
39540;SDS011;25219;52.244;21.006;2023-11-18T07:10:39;6.70;;;4.20;;
39540;SDS011;25219;52.244;21.006;2023-11-18T07:13:05;6.05;;;3.92;;
39540;SDS011;25219;52.244;21.006;2023-11-18T07:15:30;6.70;;;4.47;;
39540;SDS011;25219;52.244;21.006;2023-11-18T07:17:55;6.65;;;4.15;;
39540;SDS011;25219;52.244;21.006;2023-11-18T07:20:20;9.80;;;5.18;;
39540;SDS011;25219;52.244;21.006;2023-11-18T07:22:46;11.48;;;4.40;;
39540;SDS011;25219;52.244;21.006;2023-11-18T07:25:11;8.90;;;4.30;;
39540;SDS011;25219;52.244;21.006;2023-11-18T07:27:37;6.47;;;4.50;;
39540;SDS011;25219;52.244;21.006;2023-11-18T07:30:04;6.18;;;3.88;;
39540;SDS011;25219;52.244;21.006;2023-11-18T07:35:00;9.85;;;4.95;;
39540;SDS011;25219;52.244;21.006;2023-11-18T07:37:25;10.30;;;5.00;;
39540;SDS011;25219;52.244;21.006;2023-11-18T07:39:51;8.50;;;4.57;;
39540;SDS011;25219;52.244;21.006;2023-11-18T07:42:17;8.10;;;4.60;;
39540;SDS011;25219;52.244;21.006;2023-11-18T07:44:43;8.68;;;5.57;;
39540;SDS011;25219;52.244;21.006;2023-11-18T07:47:08;9.07;;;5.15;;
39540;SDS011;25219;52.244;21.006;2023-11-18T07:49:34;8.15;;;4.60;;
39540;SDS011;25219;52.244;21.006;2023-11-18T07:52:00;8.05;;;4.40;;
39540;SDS011;25219;52.244;21.006;2023-11-18T07:54:25;8.85;;;4.97;;
39540;SDS011;25219;52.244;21.006;2023-11-18T07:56:50;5.60;;;4.40;;
39540;SDS011;25219;52.244;21.006;2023-11-18T07:59:18;7.47;;;4.67;;
39540;SDS011;25219;52.244;21.006;2023-11-18T08:01:44;7.90;;;4.82;;
39540;SDS011;25219;52.244;21.006;2023-11-18T08:04:11;7.97;;;4.90;;
39540;SDS011;25219;52.244;21.006;2023-11-18T08:06:36;7.13;;;5.30;;
39540;SDS011;25219;52.244;21.006;2023-11-18T08:09:02;7.60;;;5.25;;
39540;SDS011;25219;52.244;21.006;2023-11-18T08:11:27;8.50;;;5.05;;
39540;SDS011;25219;52.244;21.006;2023-11-18T08:13:53;9.15;;;4.78;;
39540;SDS011;25219;52.244;21.006;2023-11-18T08:16:18;8.02;;;4.97;;
39540;SDS011;25219;52.244;21.006;2023-11-18T08:18:43;8.38;;;5.00;;
39540;SDS011;25219;52.244;21.006;2023-11-18T08:21:10;8.85;;;4.93;;
39540;SDS011;25219;52.244;21.006;2023-11-18T08:23:35;9.50;;;5.53;;
39540;SDS011;25219;52.244;21.006;2023-11-18T08:26:01;9.32;;;5.05;;
39540;SDS011;25219;52.244;21.006;2023-11-18T08:28:26;11.32;;;5.07;;
39540;SDS011;25219;52.244;21.006;2023-11-18T08:30:51;8.10;;;5.38;;
39540;SDS011;25219;52.244;21.006;2023-11-18T08:33:18;8.13;;;4.93;;
39540;SDS011;25219;52.244;21.006;2023-11-18T08:35:44;8.45;;;5.57;;
39540;SDS011;25219;52.244;21.006;2023-11-18T08:38:09;8.97;;;5.40;;
39540;SDS011;25219;52.244;21.006;2023-11-18T08:40:37;7.57;;;4.75;;
39540;SDS011;25219;52.244;21.006;2023-11-18T08:43:03;10.65;;;5.60;;
39540;SDS011;25219;52.244;21.006;2023-11-18T08:45:32;6.85;;;5.00;;
39540;SDS011;25219;52.244;21.006;2023-11-18T08:48:02;10.23;;;5.38;;
39540;SDS011;25219;52.244;21.006;2023-11-18T08:50:32;9.50;;;5.05;;
39540;SDS011;25219;52.244;21.006;2023-11-18T08:52:58;11.10;;;4.80;;
39540;SDS011;25219;52.244;21.006;2023-11-18T08:55:27;13.65;;;5.95;;
39540;SDS011;25219;52.244;21.006;2023-11-18T08:58:12;7.78;;;5.63;;
39540;SDS011;25219;52.244;21.006;2023-11-18T09:00:43;7.40;;;4.63;;
39540;SDS011;25219;52.244;21.006;2023-11-18T09:03:22;12.63;;;5.43;;
39540;SDS011;25219;52.244;21.006;2023-11-18T09:05:56;8.07;;;5.22;;
39540;SDS011;25219;52.244;21.006;2023-11-18T09:08:25;7.95;;;5.28;;
39540;SDS011;25219;52.244;21.006;2023-11-18T09:10:51;11.77;;;5.57;;
39540;SDS011;25219;52.244;21.006;2023-11-18T09:13:19;8.15;;;5.38;;
39540;SDS011;25219;52.244;21.006;2023-11-18T09:15:45;9.10;;;5.20;;
39540;SDS011;25219;52.244;21.006;2023-11-18T09:18:10;9.68;;;5.15;;
39540;SDS011;25219;52.244;21.006;2023-11-18T09:20:36;9.15;;;5.35;;
39540;SDS011;25219;52.244;21.006;2023-11-18T09:23:01;9.03;;;5.43;;
39540;SDS011;25219;52.244;21.006;2023-11-18T09:25:26;10.05;;;5.57;;
39540;SDS011;25219;52.244;21.006;2023-11-18T09:27:52;10.10;;;4.85;;
39540;SDS011;25219;52.244;21.006;2023-11-18T09:30:18;10.20;;;5.63;;
39540;SDS011;25219;52.244;21.006;2023-11-18T09:32:44;9.18;;;5.40;;
39540;SDS011;25219;52.244;21.006;2023-11-18T09:35:12;8.35;;;5.47;;
39540;SDS011;25219;52.244;21.006;2023-11-18T09:37:38;11.55;;;5.40;;
39540;SDS011;25219;52.244;21.006;2023-11-18T09:40:03;9.27;;;4.75;;
39540;SDS011;25219;52.244;21.006;2023-11-18T09:42:36;13.30;;;5.90;;
39540;SDS011;25219;52.244;21.006;2023-11-18T09:45:02;8.35;;;5.70;;
39540;SDS011;25219;52.244;21.006;2023-11-18T09:47:30;9.15;;;5.82;;
39540;SDS011;25219;52.244;21.006;2023-11-18T09:49:57;8.63;;;5.30;;
39540;SDS011;25219;52.244;21.006;2023-11-18T09:52:24;7.28;;;5.07;;
39540;SDS011;25219;52.244;21.006;2023-11-18T09:55:03;10.57;;;5.85;;
39540;SDS011;25219;52.244;21.006;2023-11-18T09:57:36;9.40;;;5.18;;
39540;SDS011;25219;52.244;21.006;2023-11-18T10:00:05;8.77;;;5.38;;
39540;SDS011;25219;52.244;21.006;2023-11-18T10:02:47;10.15;;;5.80;;
39540;SDS011;25219;52.244;21.006;2023-11-18T10:05:12;9.98;;;5.82;;
39540;SDS011;25219;52.244;21.006;2023-11-18T10:07:39;11.00;;;5.80;;
39540;SDS011;25219;52.244;21.006;2023-11-18T10:10:06;8.25;;;5.50;;
39540;SDS011;25219;52.244;21.006;2023-11-18T10:12:39;8.70;;;5.43;;
39540;SDS011;25219;52.244;21.006;2023-11-18T10:15:04;7.50;;;5.50;;
39540;SDS011;25219;52.244;21.006;2023-11-18T10:17:36;9.02;;;5.88;;
39540;SDS011;25219;52.244;21.006;2023-11-18T10:20:02;10.20;;;5.90;;
39540;SDS011;25219;52.244;21.006;2023-11-18T10:22:37;11.15;;;6.95;;
39540;SDS011;25219;52.244;21.006;2023-11-18T10:25:03;12.73;;;6.10;;
39540;SDS011;25219;52.244;21.006;2023-11-18T10:27:31;9.98;;;5.55;;
39540;SDS011;25219;52.244;21.006;2023-11-18T10:29:57;11.70;;;6.53;;
39540;SDS011;25219;52.244;21.006;2023-11-18T10:32:22;10.20;;;6.13;;
39540;SDS011;25219;52.244;21.006;2023-11-18T10:34:52;10.80;;;6.57;;
39540;SDS011;25219;52.244;21.006;2023-11-18T10:37:18;10.35;;;6.95;;
39540;SDS011;25219;52.244;21.006;2023-11-18T10:39:47;12.25;;;6.35;;
39540;SDS011;25219;52.244;21.006;2023-11-18T10:42:13;10.60;;;6.95;;
39540;SDS011;25219;52.244;21.006;2023-11-18T10:44:40;12.83;;;6.80;;
39540;SDS011;25219;52.244;21.006;2023-11-18T10:47:16;11.50;;;7.13;;
39540;SDS011;25219;52.244;21.006;2023-11-18T10:49:42;12.63;;;6.55;;
39540;SDS011;25219;52.244;21.006;2023-11-18T10:52:07;10.95;;;6.28;;
39540;SDS011;25219;52.244;21.006;2023-11-18T10:54:33;10.85;;;6.78;;
39540;SDS011;25219;52.244;21.006;2023-11-18T10:57:00;12.80;;;7.13;;
39540;SDS011;25219;52.244;21.006;2023-11-18T10:59:32;14.05;;;8.25;;
39540;SDS011;25219;52.244;21.006;2023-11-18T11:01:57;13.57;;;6.95;;
39540;SDS011;25219;52.244;21.006;2023-11-18T11:04:22;11.25;;;6.90;;
39540;SDS011;25219;52.244;21.006;2023-11-18T11:06:48;12.53;;;7.00;;
39540;SDS011;25219;52.244;21.006;2023-11-18T11:09:22;12.93;;;6.85;;
39540;SDS011;25219;52.244;21.006;2023-11-18T11:11:54;14.60;;;7.82;;
39540;SDS011;25219;52.244;21.006;2023-11-18T11:14:22;13.43;;;7.55;;
39540;SDS011;25219;52.244;21.006;2023-11-18T11:16:52;12.93;;;6.90;;
39540;SDS011;25219;52.244;21.006;2023-11-18T11:21:52;18.05;;;8.55;;
39540;SDS011;25219;52.244;21.006;2023-11-18T11:24:28;11.82;;;7.00;;
39540;SDS011;25219;52.244;21.006;2023-11-18T11:29:36;15.73;;;8.43;;
39540;SDS011;25219;52.244;21.006;2023-11-18T11:34:55;14.40;;;7.70;;
39540;SDS011;25219;52.244;21.006;2023-11-18T11:37:25;13.10;;;7.75;;
39540;SDS011;25219;52.244;21.006;2023-11-18T11:39:55;14.45;;;8.90;;
39540;SDS011;25219;52.244;21.006;2023-11-18T11:42:23;13.65;;;7.95;;
39540;SDS011;25219;52.244;21.006;2023-11-18T11:44:48;13.35;;;8.05;;
39540;SDS011;25219;52.244;21.006;2023-11-18T11:47:14;13.70;;;7.93;;
39540;SDS011;25219;52.244;21.006;2023-11-18T11:49:52;13.68;;;7.68;;
39540;SDS011;25219;52.244;21.006;2023-11-18T11:52:26;14.40;;;8.13;;
39540;SDS011;25219;52.244;21.006;2023-11-18T11:54:56;19.65;;;9.25;;
39540;SDS011;25219;52.244;21.006;2023-11-18T11:57:27;13.60;;;8.25;;
39540;SDS011;25219;52.244;21.006;2023-11-18T12:02:23;18.08;;;8.05;;
39540;SDS011;25219;52.244;21.006;2023-11-18T12:04:54;13.65;;;8.10;;
39540;SDS011;25219;52.244;21.006;2023-11-18T12:07:21;14.45;;;8.75;;
39540;SDS011;25219;52.244;21.006;2023-11-18T12:09:49;14.93;;;8.90;;
39540;SDS011;25219;52.244;21.006;2023-11-18T12:12:19;16.98;;;9.57;;
39540;SDS011;25219;52.244;21.006;2023-11-18T12:15:03;19.42;;;10.90;;
39540;SDS011;25219;52.244;21.006;2023-11-18T12:18:09;17.67;;;10.25;;
39540;SDS011;25219;52.244;21.006;2023-11-18T12:20:41;18.45;;;9.85;;
39540;SDS011;25219;52.244;21.006;2023-11-18T12:23:07;18.45;;;9.85;;
39540;SDS011;25219;52.244;21.006;2023-11-18T12:25:39;18.20;;;10.25;;
39540;SDS011;25219;52.244;21.006;2023-11-18T12:28:08;16.08;;;9.63;;
39540;SDS011;25219;52.244;21.006;2023-11-18T12:33:01;14.93;;;9.13;;
39540;SDS011;25219;52.244;21.006;2023-11-18T12:41:05;20.17;;;9.87;;
39540;SDS011;25219;52.244;21.006;2023-11-18T12:43:49;15.38;;;8.18;;
39540;SDS011;25219;52.244;21.006;2023-11-18T12:48:52;14.88;;;8.85;;
39540;SDS011;25219;52.244;21.006;2023-11-18T12:51:21;14.90;;;8.52;;
39540;SDS011;25219;52.244;21.006;2023-11-18T12:53:48;13.23;;;8.63;;
39540;SDS011;25219;52.244;21.006;2023-11-18T12:56:16;16.63;;;8.60;;
39540;SDS011;25219;52.244;21.006;2023-11-18T12:58:41;16.73;;;9.00;;
39540;SDS011;25219;52.244;21.006;2023-11-18T13:01:08;13.30;;;8.65;;
39540;SDS011;25219;52.244;21.006;2023-11-18T13:03:39;15.43;;;8.82;;
39540;SDS011;25219;52.244;21.006;2023-11-18T13:06:06;15.80;;;8.82;;
39540;SDS011;25219;52.244;21.006;2023-11-18T13:08:33;14.32;;;8.25;;
39540;SDS011;25219;52.244;21.006;2023-11-18T13:10:58;20.77;;;9.82;;
39540;SDS011;25219;52.244;21.006;2023-11-18T13:15:56;18.98;;;10.27;;
39540;SDS011;25219;52.244;21.006;2023-11-18T13:18:23;16.02;;;10.43;;
39540;SDS011;25219;52.244;21.006;2023-11-18T13:20:57;20.45;;;11.10;;
39540;SDS011;25219;52.244;21.006;2023-11-18T13:23:26;17.88;;;10.10;;
39540;SDS011;25219;52.244;21.006;2023-11-18T13:25:55;15.38;;;9.20;;
39540;SDS011;25219;52.244;21.006;2023-11-18T13:28:24;19.30;;;9.65;;
39540;SDS011;25219;52.244;21.006;2023-11-18T13:30:49;19.25;;;10.55;;
39540;SDS011;25219;52.244;21.006;2023-11-18T13:33:15;17.80;;;9.90;;
39540;SDS011;25219;52.244;21.006;2023-11-18T13:35:41;18.92;;;9.73;;
39540;SDS011;25219;52.244;21.006;2023-11-18T13:38:08;18.75;;;9.00;;
39540;SDS011;25219;52.244;21.006;2023-11-18T13:40:46;16.58;;;9.02;;
39540;SDS011;25219;52.244;21.006;2023-11-18T13:43:14;16.55;;;8.77;;
39540;SDS011;25219;52.244;21.006;2023-11-18T13:45:42;13.88;;;8.20;;
39540;SDS011;25219;52.244;21.006;2023-11-18T13:48:08;14.38;;;8.40;;
39540;SDS011;25219;52.244;21.006;2023-11-18T13:50:36;15.75;;;8.07;;
39540;SDS011;25219;52.244;21.006;2023-11-18T13:53:05;13.93;;;7.90;;
39540;SDS011;25219;52.244;21.006;2023-11-18T13:55:31;14.30;;;8.38;;
39540;SDS011;25219;52.244;21.006;2023-11-18T13:57:57;14.38;;;8.90;;
39540;SDS011;25219;52.244;21.006;2023-11-18T14:00:25;14.75;;;7.90;;
39540;SDS011;25219;52.244;21.006;2023-11-18T14:02:52;16.60;;;8.85;;
39540;SDS011;25219;52.244;21.006;2023-11-18T14:05:18;14.48;;;8.40;;
39540;SDS011;25219;52.244;21.006;2023-11-18T14:07:49;12.82;;;7.97;;
39540;SDS011;25219;52.244;21.006;2023-11-18T14:10:14;15.18;;;8.07;;
39540;SDS011;25219;52.244;21.006;2023-11-18T14:12:40;13.95;;;8.00;;
39540;SDS011;25219;52.244;21.006;2023-11-18T14:15:19;14.60;;;8.00;;
39540;SDS011;25219;52.244;21.006;2023-11-18T14:17:45;13.05;;;6.95;;
39540;SDS011;25219;52.244;21.006;2023-11-18T14:20:10;14.23;;;8.00;;
39540;SDS011;25219;52.244;21.006;2023-11-18T14:22:38;13.80;;;7.68;;
39540;SDS011;25219;52.244;21.006;2023-11-18T14:25:05;14.98;;;8.10;;
39540;SDS011;25219;52.244;21.006;2023-11-18T14:27:31;16.90;;;8.80;;
39540;SDS011;25219;52.244;21.006;2023-11-18T14:29:58;14.93;;;7.60;;
39540;SDS011;25219;52.244;21.006;2023-11-18T14:32:23;16.50;;;8.05;;
39540;SDS011;25219;52.244;21.006;2023-11-18T14:34:48;13.27;;;7.67;;
39540;SDS011;25219;52.244;21.006;2023-11-18T14:37:14;15.88;;;8.52;;
39540;SDS011;25219;52.244;21.006;2023-11-18T14:39:39;14.30;;;7.97;;
39540;SDS011;25219;52.244;21.006;2023-11-18T14:42:05;14.00;;;9.43;;
39540;SDS011;25219;52.244;21.006;2023-11-18T14:44:30;15.63;;;8.88;;
39540;SDS011;25219;52.244;21.006;2023-11-18T14:46:56;16.57;;;9.53;;
39540;SDS011;25219;52.244;21.006;2023-11-18T14:49:22;18.83;;;9.63;;
39540;SDS011;25219;52.244;21.006;2023-11-18T14:51:47;15.57;;;8.80;;
39540;SDS011;25219;52.244;21.006;2023-11-18T14:54:12;15.85;;;8.70;;